sensor_id;sensor_type;location;lat;lon;timestamp;temperature;humidity
4518;DHT22;2271;49.464;11.070;2024-03-22T00:01:53;11.70;99.90
4518;DHT22;2271;49.464;11.070;2024-03-22T00:04:19;11.70;99.90
4518;DHT22;2271;49.464;11.070;2024-03-22T00:06:49;11.70;99.90
4518;DHT22;2271;49.464;11.070;2024-03-22T00:09:15;11.70;99.90
4518;DHT22;2271;49.464;11.070;2024-03-22T00:11:42;11.70;99.90
4518;DHT22;2271;49.464;11.070;2024-03-22T00:14:09;11.60;99.90
4518;DHT22;2271;49.464;11.070;2024-03-22T00:16:35;11.60;99.90
4518;DHT22;2271;49.464;11.070;2024-03-22T00:19:01;11.50;99.90
4518;DHT22;2271;49.464;11.070;2024-03-22T00:21:27;11.50;99.90
4518;DHT22;2271;49.464;11.070;2024-03-22T00:23:55;11.50;99.90
4518;DHT22;2271;49.464;11.070;2024-03-22T00:26:20;11.50;99.90
4518;DHT22;2271;49.464;11.070;2024-03-22T00:28:47;11.50;99.90
4518;DHT22;2271;49.464;11.070;2024-03-22T00:31:12;11.50;99.90
4518;DHT22;2271;49.464;11.070;2024-03-22T00:33:38;11.50;99.90
4518;DHT22;2271;49.464;11.070;2024-03-22T00:36:04;11.40;99.90
4518;DHT22;2271;49.464;11.070;2024-03-22T00:38:29;11.30;99.90
4518;DHT22;2271;49.464;11.070;2024-03-22T00:40:55;11.20;99.90
4518;DHT22;2271;49.464;11.070;2024-03-22T00:43:21;11.20;99.90
4518;DHT22;2271;49.464;11.070;2024-03-22T00:45:47;11.10;99.90
4518;DHT22;2271;49.464;11.070;2024-03-22T00:48:13;11.00;99.90
4518;DHT22;2271;49.464;11.070;2024-03-22T00:50:38;10.90;99.90
4518;DHT22;2271;49.464;11.070;2024-03-22T00:53:04;10.90;99.90
4518;DHT22;2271;49.464;11.070;2024-03-22T00:55:31;10.80;99.90
4518;DHT22;2271;49.464;11.070;2024-03-22T00:57:57;10.80;99.90
4518;DHT22;2271;49.464;11.070;2024-03-22T01:00:22;10.80;99.90
4518;DHT22;2271;49.464;11.070;2024-03-22T01:02:49;10.80;99.90
4518;DHT22;2271;49.464;11.070;2024-03-22T01:05:15;10.70;99.90
4518;DHT22;2271;49.464;11.070;2024-03-22T01:07:41;10.70;99.90
4518;DHT22;2271;49.464;11.070;2024-03-22T01:10:07;10.70;99.90
4518;DHT22;2271;49.464;11.070;2024-03-22T01:12:33;10.60;99.90
4518;DHT22;2271;49.464;11.070;2024-03-22T01:14:58;10.60;99.90
4518;DHT22;2271;49.464;11.070;2024-03-22T01:17:24;10.60;99.90
4518;DHT22;2271;49.464;11.070;2024-03-22T01:19:50;10.60;99.90
4518;DHT22;2271;49.464;11.070;2024-03-22T01:22:17;10.60;99.90
4518;DHT22;2271;49.464;11.070;2024-03-22T01:24:44;10.50;99.90
4518;DHT22;2271;49.464;11.070;2024-03-22T01:27:09;10.40;99.90
4518;DHT22;2271;49.464;11.070;2024-03-22T01:29:35;10.40;99.90
4518;DHT22;2271;49.464;11.070;2024-03-22T01:32:02;10.40;99.90
4518;DHT22;2271;49.464;11.070;2024-03-22T01:34:28;10.40;99.90
4518;DHT22;2271;49.464;11.070;2024-03-22T01:36:54;10.40;99.90
4518;DHT22;2271;49.464;11.070;2024-03-22T01:39:21;10.40;99.90
4518;DHT22;2271;49.464;11.070;2024-03-22T01:41:50;10.30;99.90
4518;DHT22;2271;49.464;11.070;2024-03-22T01:44:16;10.30;99.90
4518;DHT22;2271;49.464;11.070;2024-03-22T01:46:44;10.20;99.90
4518;DHT22;2271;49.464;11.070;2024-03-22T01:49:12;10.10;99.90
4518;DHT22;2271;49.464;11.070;2024-03-22T01:51:40;10.10;99.90
4518;DHT22;2271;49.464;11.070;2024-03-22T01:54:08;10.00;99.90
4518;DHT22;2271;49.464;11.070;2024-03-22T01:56:36;10.00;99.90
4518;DHT22;2271;49.464;11.070;2024-03-22T01:59:03;9.90;99.90
4518;DHT22;2271;49.464;11.070;2024-03-22T02:01:29;9.90;99.90
4518;DHT22;2271;49.464;11.070;2024-03-22T02:03:55;9.90;99.90
4518;DHT22;2271;49.464;11.070;2024-03-22T02:06:21;9.80;99.90
4518;DHT22;2271;49.464;11.070;2024-03-22T02:08:46;9.80;99.90
4518;DHT22;2271;49.464;11.070;2024-03-22T02:11:12;9.90;99.90
4518;DHT22;2271;49.464;11.070;2024-03-22T02:13:37;9.80;99.90
4518;DHT22;2271;49.464;11.070;2024-03-22T02:16:03;9.80;99.90
4518;DHT22;2271;49.464;11.070;2024-03-22T02:18:29;9.80;99.90
4518;DHT22;2271;49.464;11.070;2024-03-22T02:20:56;9.80;99.90
4518;DHT22;2271;49.464;11.070;2024-03-22T02:23:42;9.70;99.90
4518;DHT22;2271;49.464;11.070;2024-03-22T02:26:08;9.60;99.90
4518;DHT22;2271;49.464;11.070;2024-03-22T02:28:34;9.60;99.90
4518;DHT22;2271;49.464;11.070;2024-03-22T02:31:04;9.50;99.90
4518;DHT22;2271;49.464;11.070;2024-03-22T02:33:30;9.50;99.90
4518;DHT22;2271;49.464;11.070;2024-03-22T02:35:56;9.40;99.90
4518;DHT22;2271;49.464;11.070;2024-03-22T02:38:22;9.30;99.90
4518;DHT22;2271;49.464;11.070;2024-03-22T02:40:49;9.40;99.90
4518;DHT22;2271;49.464;11.070;2024-03-22T02:43:15;9.30;99.90
4518;DHT22;2271;49.464;11.070;2024-03-22T02:45:42;9.20;99.90
4518;DHT22;2271;49.464;11.070;2024-03-22T02:48:08;9.20;99.90
4518;DHT22;2271;49.464;11.070;2024-03-22T02:50:34;9.20;99.90
4518;DHT22;2271;49.464;11.070;2024-03-22T02:53:00;9.10;99.90
4518;DHT22;2271;49.464;11.070;2024-03-22T02:55:26;9.10;99.90
4518;DHT22;2271;49.464;11.070;2024-03-22T02:57:52;9.00;99.90
4518;DHT22;2271;49.464;11.070;2024-03-22T03:00:18;9.00;99.90
4518;DHT22;2271;49.464;11.070;2024-03-22T03:02:45;8.90;99.90
4518;DHT22;2271;49.464;11.070;2024-03-22T03:05:11;8.90;99.90
4518;DHT22;2271;49.464;11.070;2024-03-22T03:07:36;9.00;99.90
4518;DHT22;2271;49.464;11.070;2024-03-22T03:10:02;8.90;99.90
4518;DHT22;2271;49.464;11.070;2024-03-22T03:12:28;9.00;99.90
4518;DHT22;2271;49.464;11.070;2024-03-22T03:14:53;9.00;99.90
4518;DHT22;2271;49.464;11.070;2024-03-22T03:17:19;9.00;99.90
4518;DHT22;2271;49.464;11.070;2024-03-22T03:19:45;9.00;99.90
4518;DHT22;2271;49.464;11.070;2024-03-22T03:22:10;9.00;99.90
4518;DHT22;2271;49.464;11.070;2024-03-22T03:24:36;9.00;99.90
4518;DHT22;2271;49.464;11.070;2024-03-22T03:27:02;9.00;99.90
4518;DHT22;2271;49.464;11.070;2024-03-22T03:29:28;9.00;99.90
4518;DHT22;2271;49.464;11.070;2024-03-22T03:31:53;8.90;99.90
4518;DHT22;2271;49.464;11.070;2024-03-22T03:34:19;8.90;99.90
4518;DHT22;2271;49.464;11.070;2024-03-22T03:36:46;8.90;99.90
4518;DHT22;2271;49.464;11.070;2024-03-22T03:39:12;8.70;99.90
4518;DHT22;2271;49.464;11.070;2024-03-22T03:41:37;8.70;99.90
4518;DHT22;2271;49.464;11.070;2024-03-22T03:44:03;8.70;99.90
4518;DHT22;2271;49.464;11.070;2024-03-22T03:46:28;8.70;99.90
4518;DHT22;2271;49.464;11.070;2024-03-22T03:48:54;8.70;99.90
4518;DHT22;2271;49.464;11.070;2024-03-22T03:51:19;8.70;99.90
4518;DHT22;2271;49.464;11.070;2024-03-22T03:53:45;8.70;99.90
4518;DHT22;2271;49.464;11.070;2024-03-22T03:56:11;8.80;99.90
4518;DHT22;2271;49.464;11.070;2024-03-22T03:58:36;8.80;99.90
4518;DHT22;2271;49.464;11.070;2024-03-22T04:01:08;8.80;99.90
4518;DHT22;2271;49.464;11.070;2024-03-22T04:03:34;8.80;99.90
4518;DHT22;2271;49.464;11.070;2024-03-22T04:06:01;8.80;99.90
4518;DHT22;2271;49.464;11.070;2024-03-22T04:08:27;8.80;99.90
4518;DHT22;2271;49.464;11.070;2024-03-22T04:10:53;8.90;99.90
4518;DHT22;2271;49.464;11.070;2024-03-22T04:13:25;8.90;99.90
4518;DHT22;2271;49.464;11.070;2024-03-22T04:15:51;8.90;99.90
4518;DHT22;2271;49.464;11.070;2024-03-22T04:18:17;8.90;99.90
4518;DHT22;2271;49.464;11.070;2024-03-22T04:20:43;8.80;99.90
4518;DHT22;2271;49.464;11.070;2024-03-22T04:23:18;8.80;99.90
4518;DHT22;2271;49.464;11.070;2024-03-22T04:25:54;8.70;99.90
4518;DHT22;2271;49.464;11.070;2024-03-22T04:28:20;8.70;99.90
4518;DHT22;2271;49.464;11.070;2024-03-22T04:31:06;8.60;99.90
4518;DHT22;2271;49.464;11.070;2024-03-22T04:33:33;8.70;99.90
4518;DHT22;2271;49.464;11.070;2024-03-22T04:35:59;8.70;99.90
4518;DHT22;2271;49.464;11.070;2024-03-22T04:38:26;8.70;99.90
4518;DHT22;2271;49.464;11.070;2024-03-22T04:40:52;8.60;99.90
4518;DHT22;2271;49.464;11.070;2024-03-22T04:43:18;8.60;99.90
4518;DHT22;2271;49.464;11.070;2024-03-22T04:45:45;8.60;99.90
4518;DHT22;2271;49.464;11.070;2024-03-22T04:48:14;8.60;99.90
4518;DHT22;2271;49.464;11.070;2024-03-22T04:50:40;8.60;99.90
4518;DHT22;2271;49.464;11.070;2024-03-22T04:53:06;8.60;99.90
4518;DHT22;2271;49.464;11.070;2024-03-22T04:55:32;8.60;99.90
4518;DHT22;2271;49.464;11.070;2024-03-22T04:58:00;8.60;99.90
4518;DHT22;2271;49.464;11.070;2024-03-22T05:00:27;8.60;99.90
4518;DHT22;2271;49.464;11.070;2024-03-22T05:02:53;8.70;99.90
4518;DHT22;2271;49.464;11.070;2024-03-22T05:05:19;9.20;99.90
4518;DHT22;2271;49.464;11.070;2024-03-22T05:07:45;9.60;99.90
4518;DHT22;2271;49.464;11.070;2024-03-22T05:10:11;9.80;99.90
4518;DHT22;2271;49.464;11.070;2024-03-22T05:12:37;9.70;99.90
4518;DHT22;2271;49.464;11.070;2024-03-22T05:15:03;9.70;99.90
4518;DHT22;2271;49.464;11.070;2024-03-22T05:17:29;9.70;99.90
4518;DHT22;2271;49.464;11.070;2024-03-22T05:20:00;9.70;99.90
4518;DHT22;2271;49.464;11.070;2024-03-22T05:22:27;9.50;99.90
4518;DHT22;2271;49.464;11.070;2024-03-22T05:24:52;9.30;99.90
4518;DHT22;2271;49.464;11.070;2024-03-22T05:27:18;9.10;99.90
4518;DHT22;2271;49.464;11.070;2024-03-22T05:29:44;9.00;99.90
4518;DHT22;2271;49.464;11.070;2024-03-22T05:32:10;8.90;99.90
4518;DHT22;2271;49.464;11.070;2024-03-22T05:34:36;8.90;99.90
4518;DHT22;2271;49.464;11.070;2024-03-22T05:37:02;8.80;99.90
4518;DHT22;2271;49.464;11.070;2024-03-22T05:39:28;8.80;99.90
4518;DHT22;2271;49.464;11.070;2024-03-22T05:41:53;8.70;99.90
4518;DHT22;2271;49.464;11.070;2024-03-22T05:44:23;8.70;99.90
4518;DHT22;2271;49.464;11.070;2024-03-22T05:46:48;8.70;99.90
4518;DHT22;2271;49.464;11.070;2024-03-22T05:49:14;8.70;99.90
4518;DHT22;2271;49.464;11.070;2024-03-22T05:51:40;8.70;99.90
4518;DHT22;2271;49.464;11.070;2024-03-22T05:54:06;8.60;99.90
4518;DHT22;2271;49.464;11.070;2024-03-22T05:56:32;8.60;99.90
4518;DHT22;2271;49.464;11.070;2024-03-22T05:58:57;8.70;99.90
4518;DHT22;2271;49.464;11.070;2024-03-22T06:01:25;8.70;99.90
4518;DHT22;2271;49.464;11.070;2024-03-22T06:03:51;8.70;99.90
4518;DHT22;2271;49.464;11.070;2024-03-22T06:06:17;8.70;99.90
4518;DHT22;2271;49.464;11.070;2024-03-22T06:08:42;8.60;99.90
4518;DHT22;2271;49.464;11.070;2024-03-22T06:11:10;8.60;99.90
4518;DHT22;2271;49.464;11.070;2024-03-22T06:13:36;8.60;99.90
4518;DHT22;2271;49.464;11.070;2024-03-22T06:16:02;8.80;99.90
4518;DHT22;2271;49.464;11.070;2024-03-22T06:18:29;9.00;99.90
4518;DHT22;2271;49.464;11.070;2024-03-22T06:20:54;9.30;99.90
4518;DHT22;2271;49.464;11.070;2024-03-22T06:23:21;9.60;99.90
4518;DHT22;2271;49.464;11.070;2024-03-22T06:25:53;11.30;99.90
4518;DHT22;2271;49.464;11.070;2024-03-22T06:28:19;15.10;99.90
4518;DHT22;2271;49.464;11.070;2024-03-22T06:30:45;17.80;99.90
4518;DHT22;2271;49.464;11.070;2024-03-22T06:33:10;18.60;99.90
4518;DHT22;2271;49.464;11.070;2024-03-22T06:35:36;17.70;99.90
4518;DHT22;2271;49.464;11.070;2024-03-22T06:38:02;17.90;99.90
4518;DHT22;2271;49.464;11.070;2024-03-22T06:40:30;17.70;99.90
4518;DHT22;2271;49.464;11.070;2024-03-22T06:42:56;15.10;99.90
4518;DHT22;2271;49.464;11.070;2024-03-22T06:45:22;13.10;99.90
4518;DHT22;2271;49.464;11.070;2024-03-22T06:47:48;12.00;99.90
4518;DHT22;2271;49.464;11.070;2024-03-22T06:50:13;11.30;99.90
4518;DHT22;2271;49.464;11.070;2024-03-22T06:52:39;10.80;99.90
4518;DHT22;2271;49.464;11.070;2024-03-22T06:55:05;10.50;99.90
4518;DHT22;2271;49.464;11.070;2024-03-22T06:57:31;10.40;99.90
4518;DHT22;2271;49.464;11.070;2024-03-22T06:59:59;10.20;99.90
4518;DHT22;2271;49.464;11.070;2024-03-22T07:02:25;10.10;99.90
4518;DHT22;2271;49.464;11.070;2024-03-22T07:04:51;10.20;99.90
4518;DHT22;2271;49.464;11.070;2024-03-22T07:07:17;10.20;99.90
4518;DHT22;2271;49.464;11.070;2024-03-22T07:09:43;10.20;99.90
4518;DHT22;2271;49.464;11.070;2024-03-22T07:12:09;10.30;99.90
4518;DHT22;2271;49.464;11.070;2024-03-22T07:14:35;10.10;99.90
4518;DHT22;2271;49.464;11.070;2024-03-22T07:17:00;10.10;99.90
4518;DHT22;2271;49.464;11.070;2024-03-22T07:19:26;10.00;99.90
4518;DHT22;2271;49.464;11.070;2024-03-22T07:21:54;10.00;99.90
4518;DHT22;2271;49.464;11.070;2024-03-22T07:24:19;9.90;99.90
4518;DHT22;2271;49.464;11.070;2024-03-22T07:26:45;10.00;99.90
4518;DHT22;2271;49.464;11.070;2024-03-22T07:29:11;10.00;99.90
4518;DHT22;2271;49.464;11.070;2024-03-22T07:31:37;9.90;99.90
4518;DHT22;2271;49.464;11.070;2024-03-22T07:34:03;10.00;99.90
4518;DHT22;2271;49.464;11.070;2024-03-22T07:36:30;10.10;99.90
4518;DHT22;2271;49.464;11.070;2024-03-22T07:38:56;10.10;99.90
4518;DHT22;2271;49.464;11.070;2024-03-22T07:41:23;10.10;99.90
4518;DHT22;2271;49.464;11.070;2024-03-22T07:43:49;10.20;99.90
4518;DHT22;2271;49.464;11.070;2024-03-22T07:46:14;10.20;99.90
4518;DHT22;2271;49.464;11.070;2024-03-22T07:48:40;10.30;99.90
4518;DHT22;2271;49.464;11.070;2024-03-22T07:51:06;10.30;99.90
4518;DHT22;2271;49.464;11.070;2024-03-22T07:53:31;10.40;99.90
4518;DHT22;2271;49.464;11.070;2024-03-22T07:55:57;10.50;99.90
4518;DHT22;2271;49.464;11.070;2024-03-22T07:58:23;10.70;99.90
4518;DHT22;2271;49.464;11.070;2024-03-22T08:00:48;10.70;99.90
4518;DHT22;2271;49.464;11.070;2024-03-22T08:03:15;10.60;99.90
4518;DHT22;2271;49.464;11.070;2024-03-22T08:05:41;10.60;99.90
4518;DHT22;2271;49.464;11.070;2024-03-22T08:08:07;10.70;99.90
4518;DHT22;2271;49.464;11.070;2024-03-22T08:10:33;10.70;99.90
4518;DHT22;2271;49.464;11.070;2024-03-22T08:12:59;10.80;99.90
4518;DHT22;2271;49.464;11.070;2024-03-22T08:15:26;10.80;99.90
4518;DHT22;2271;49.464;11.070;2024-03-22T08:17:52;10.90;99.90
4518;DHT22;2271;49.464;11.070;2024-03-22T08:20:17;10.90;99.90
4518;DHT22;2271;49.464;11.070;2024-03-22T08:22:43;11.00;99.90
4518;DHT22;2271;49.464;11.070;2024-03-22T08:25:08;11.00;99.90
4518;DHT22;2271;49.464;11.070;2024-03-22T08:27:34;11.00;99.90
4518;DHT22;2271;49.464;11.070;2024-03-22T08:30:00;11.10;99.90
4518;DHT22;2271;49.464;11.070;2024-03-22T08:32:26;11.10;99.90
4518;DHT22;2271;49.464;11.070;2024-03-22T08:34:51;11.20;99.90
4518;DHT22;2271;49.464;11.070;2024-03-22T08:37:17;11.30;99.90
4518;DHT22;2271;49.464;11.070;2024-03-22T08:39:43;11.40;99.90
4518;DHT22;2271;49.464;11.070;2024-03-22T08:42:09;11.60;99.90
4518;DHT22;2271;49.464;11.070;2024-03-22T08:44:35;11.60;99.90
4518;DHT22;2271;49.464;11.070;2024-03-22T08:47:01;11.80;99.90
4518;DHT22;2271;49.464;11.070;2024-03-22T08:49:26;12.30;99.90
4518;DHT22;2271;49.464;11.070;2024-03-22T08:51:52;13.20;99.90
4518;DHT22;2271;49.464;11.070;2024-03-22T08:54:17;14.00;99.90
4518;DHT22;2271;49.464;11.070;2024-03-22T08:56:43;14.80;99.90
4518;DHT22;2271;49.464;11.070;2024-03-22T08:59:09;15.40;99.90
4518;DHT22;2271;49.464;11.070;2024-03-22T09:01:36;15.70;99.90
4518;DHT22;2271;49.464;11.070;2024-03-22T09:04:02;15.60;99.90
4518;DHT22;2271;49.464;11.070;2024-03-22T09:06:27;15.70;99.90
4518;DHT22;2271;49.464;11.070;2024-03-22T09:08:53;15.90;99.90
4518;DHT22;2271;49.464;11.070;2024-03-22T09:11:23;16.10;99.90
4518;DHT22;2271;49.464;11.070;2024-03-22T09:13:52;16.20;99.90
4518;DHT22;2271;49.464;11.070;2024-03-22T09:16:17;16.20;99.90
4518;DHT22;2271;49.464;11.070;2024-03-22T09:18:43;16.20;99.90
4518;DHT22;2271;49.464;11.070;2024-03-22T09:21:09;16.20;99.90
4518;DHT22;2271;49.464;11.070;2024-03-22T09:23:36;16.20;99.90
4518;DHT22;2271;49.464;11.070;2024-03-22T09:26:01;16.30;99.90
4518;DHT22;2271;49.464;11.070;2024-03-22T09:28:27;16.50;99.90
4518;DHT22;2271;49.464;11.070;2024-03-22T09:30:53;16.50;99.90
4518;DHT22;2271;49.464;11.070;2024-03-22T09:33:18;16.80;99.90
4518;DHT22;2271;49.464;11.070;2024-03-22T09:35:44;17.00;99.90
4518;DHT22;2271;49.464;11.070;2024-03-22T09:38:10;17.20;99.90
4518;DHT22;2271;49.464;11.070;2024-03-22T09:40:38;17.30;99.90
4518;DHT22;2271;49.464;11.070;2024-03-22T09:43:07;17.50;99.90
4518;DHT22;2271;49.464;11.070;2024-03-22T09:45:33;17.60;99.90
4518;DHT22;2271;49.464;11.070;2024-03-22T09:47:59;17.70;99.90
4518;DHT22;2271;49.464;11.070;2024-03-22T09:50:26;17.70;99.90
4518;DHT22;2271;49.464;11.070;2024-03-22T09:52:52;17.90;99.90
4518;DHT22;2271;49.464;11.070;2024-03-22T09:55:22;18.00;99.90
4518;DHT22;2271;49.464;11.070;2024-03-22T09:57:49;18.20;99.90
4518;DHT22;2271;49.464;11.070;2024-03-22T10:00:20;18.30;99.90
4518;DHT22;2271;49.464;11.070;2024-03-22T10:02:47;18.40;99.90
4518;DHT22;2271;49.464;11.070;2024-03-22T10:05:14;18.60;99.90
4518;DHT22;2271;49.464;11.070;2024-03-22T10:07:40;18.80;99.90
4518;DHT22;2271;49.464;11.070;2024-03-22T10:10:07;18.90;99.90
4518;DHT22;2271;49.464;11.070;2024-03-22T10:12:33;19.00;99.90
4518;DHT22;2271;49.464;11.070;2024-03-22T10:14:59;19.20;99.90
4518;DHT22;2271;49.464;11.070;2024-03-22T10:17:26;19.30;99.90
4518;DHT22;2271;49.464;11.070;2024-03-22T10:19:52;19.40;99.90
4518;DHT22;2271;49.464;11.070;2024-03-22T10:22:18;19.30;99.90
4518;DHT22;2271;49.464;11.070;2024-03-22T10:24:44;19.30;99.90
4518;DHT22;2271;49.464;11.070;2024-03-22T10:27:10;19.40;99.90
4518;DHT22;2271;49.464;11.070;2024-03-22T10:29:36;19.40;99.90
4518;DHT22;2271;49.464;11.070;2024-03-22T10:32:01;19.30;99.90
4518;DHT22;2271;49.464;11.070;2024-03-22T10:34:27;19.30;99.90
4518;DHT22;2271;49.464;11.070;2024-03-22T10:36:55;19.40;99.90
4518;DHT22;2271;49.464;11.070;2024-03-22T10:39:23;19.40;99.90
4518;DHT22;2271;49.464;11.070;2024-03-22T10:41:49;19.40;99.90
4518;DHT22;2271;49.464;11.070;2024-03-22T10:44:15;19.30;99.90
4518;DHT22;2271;49.464;11.070;2024-03-22T10:46:45;19.20;99.90
4518;DHT22;2271;49.464;11.070;2024-03-22T10:49:19;19.30;99.90
4518;DHT22;2271;49.464;11.070;2024-03-22T10:52:11;19.30;99.90
4518;DHT22;2271;49.464;11.070;2024-03-22T10:54:44;19.50;99.90
4518;DHT22;2271;49.464;11.070;2024-03-22T10:57:12;19.80;99.90
4518;DHT22;2271;49.464;11.070;2024-03-22T10:59:41;20.00;99.90
4518;DHT22;2271;49.464;11.070;2024-03-22T11:02:10;19.90;99.90
4518;DHT22;2271;49.464;11.070;2024-03-22T11:04:36;20.00;99.90
4518;DHT22;2271;49.464;11.070;2024-03-22T11:07:02;19.90;99.90
4518;DHT22;2271;49.464;11.070;2024-03-22T11:09:29;19.70;99.90
4518;DHT22;2271;49.464;11.070;2024-03-22T11:11:56;19.30;99.90
4518;DHT22;2271;49.464;11.070;2024-03-22T11:14:26;19.00;99.90
4518;DHT22;2271;49.464;11.070;2024-03-22T11:16:52;18.70;99.90
4518;DHT22;2271;49.464;11.070;2024-03-22T11:19:20;18.40;99.90
4518;DHT22;2271;49.464;11.070;2024-03-22T11:21:46;18.30;99.90
4518;DHT22;2271;49.464;11.070;2024-03-22T11:24:11;18.30;99.90
4518;DHT22;2271;49.464;11.070;2024-03-22T11:26:37;18.20;99.90
4518;DHT22;2271;49.464;11.070;2024-03-22T11:29:03;18.00;99.90
4518;DHT22;2271;49.464;11.070;2024-03-22T11:31:29;18.00;99.90
4518;DHT22;2271;49.464;11.070;2024-03-22T11:33:55;18.00;99.90
4518;DHT22;2271;49.464;11.070;2024-03-22T11:36:22;18.00;99.90
4518;DHT22;2271;49.464;11.070;2024-03-22T11:38:48;18.00;99.90
4518;DHT22;2271;49.464;11.070;2024-03-22T11:41:17;18.10;99.90
4518;DHT22;2271;49.464;11.070;2024-03-22T11:43:44;18.00;99.90
4518;DHT22;2271;49.464;11.070;2024-03-22T11:46:10;17.90;99.90
4518;DHT22;2271;49.464;11.070;2024-03-22T11:48:42;17.90;99.90
4518;DHT22;2271;49.464;11.070;2024-03-22T11:51:08;17.90;99.90
4518;DHT22;2271;49.464;11.070;2024-03-22T11:53:35;18.00;99.90
4518;DHT22;2271;49.464;11.070;2024-03-22T11:56:01;18.10;99.90
4518;DHT22;2271;49.464;11.070;2024-03-22T11:58:29;18.20;99.90
4518;DHT22;2271;49.464;11.070;2024-03-22T12:00:56;18.40;99.90
4518;DHT22;2271;49.464;11.070;2024-03-22T12:03:22;18.40;99.90
4518;DHT22;2271;49.464;11.070;2024-03-22T12:05:48;18.50;99.90
4518;DHT22;2271;49.464;11.070;2024-03-22T12:08:17;18.40;99.90
4518;DHT22;2271;49.464;11.070;2024-03-22T12:10:43;18.50;99.90
4518;DHT22;2271;49.464;11.070;2024-03-22T12:13:09;18.60;99.90
4518;DHT22;2271;49.464;11.070;2024-03-22T12:15:35;18.80;99.90
4518;DHT22;2271;49.464;11.070;2024-03-22T12:18:02;19.10;99.90
4518;DHT22;2271;49.464;11.070;2024-03-22T12:20:28;19.10;99.90
4518;DHT22;2271;49.464;11.070;2024-03-22T12:22:53;19.20;99.90
4518;DHT22;2271;49.464;11.070;2024-03-22T12:25:19;19.20;99.90
4518;DHT22;2271;49.464;11.070;2024-03-22T12:27:46;19.10;99.90
4518;DHT22;2271;49.464;11.070;2024-03-22T12:30:12;19.10;99.90
4518;DHT22;2271;49.464;11.070;2024-03-22T12:32:38;19.00;99.90
4518;DHT22;2271;49.464;11.070;2024-03-22T12:35:04;19.00;99.90
4518;DHT22;2271;49.464;11.070;2024-03-22T12:37:29;19.00;99.90
4518;DHT22;2271;49.464;11.070;2024-03-22T12:39:55;19.10;99.90
4518;DHT22;2271;49.464;11.070;2024-03-22T12:42:21;19.10;99.90
4518;DHT22;2271;49.464;11.070;2024-03-22T12:44:47;19.20;99.90
4518;DHT22;2271;49.464;11.070;2024-03-22T12:47:12;19.00;99.90
4518;DHT22;2271;49.464;11.070;2024-03-22T12:49:38;18.90;99.90
4518;DHT22;2271;49.464;11.070;2024-03-22T12:52:04;18.80;99.90
4518;DHT22;2271;49.464;11.070;2024-03-22T12:54:29;18.90;99.90
4518;DHT22;2271;49.464;11.070;2024-03-22T12:56:55;18.90;99.90
4518;DHT22;2271;49.464;11.070;2024-03-22T12:59:21;18.90;99.90
4518;DHT22;2271;49.464;11.070;2024-03-22T13:01:46;18.80;99.90
4518;DHT22;2271;49.464;11.070;2024-03-22T13:04:12;18.80;99.90
4518;DHT22;2271;49.464;11.070;2024-03-22T13:06:38;18.80;99.90
4518;DHT22;2271;49.464;11.070;2024-03-22T13:09:03;18.80;99.90
4518;DHT22;2271;49.464;11.070;2024-03-22T13:11:31;18.80;99.90
4518;DHT22;2271;49.464;11.070;2024-03-22T13:13:57;18.80;99.90
4518;DHT22;2271;49.464;11.070;2024-03-22T13:16:23;18.80;99.90
4518;DHT22;2271;49.464;11.070;2024-03-22T13:18:48;18.80;99.90
4518;DHT22;2271;49.464;11.070;2024-03-22T13:21:14;18.80;99.90
4518;DHT22;2271;49.464;11.070;2024-03-22T13:23:39;18.90;99.90
4518;DHT22;2271;49.464;11.070;2024-03-22T13:26:05;18.80;99.90
4518;DHT22;2271;49.464;11.070;2024-03-22T13:28:32;18.70;99.90
4518;DHT22;2271;49.464;11.070;2024-03-22T13:31:02;18.60;99.90
4518;DHT22;2271;49.464;11.070;2024-03-22T13:33:29;18.50;99.90
4518;DHT22;2271;49.464;11.070;2024-03-22T13:35:55;18.40;99.90
4518;DHT22;2271;49.464;11.070;2024-03-22T13:38:20;18.30;99.90
4518;DHT22;2271;49.464;11.070;2024-03-22T13:40:56;18.20;99.90
4518;DHT22;2271;49.464;11.070;2024-03-22T13:43:23;18.10;99.90
4518;DHT22;2271;49.464;11.070;2024-03-22T13:45:52;18.10;99.90
4518;DHT22;2271;49.464;11.070;2024-03-22T13:48:22;18.00;99.90
4518;DHT22;2271;49.464;11.070;2024-03-22T13:50:52;18.00;99.90
4518;DHT22;2271;49.464;11.070;2024-03-22T13:53:18;18.00;99.90
4518;DHT22;2271;49.464;11.070;2024-03-22T13:55:44;18.00;99.90
4518;DHT22;2271;49.464;11.070;2024-03-22T13:58:10;18.00;99.90
4518;DHT22;2271;49.464;11.070;2024-03-22T14:00:35;18.00;99.90
4518;DHT22;2271;49.464;11.070;2024-03-22T14:03:01;18.00;99.90
4518;DHT22;2271;49.464;11.070;2024-03-22T14:05:27;18.10;99.90
4518;DHT22;2271;49.464;11.070;2024-03-22T14:07:53;18.10;99.90
4518;DHT22;2271;49.464;11.070;2024-03-22T14:10:18;18.00;99.90
4518;DHT22;2271;49.464;11.070;2024-03-22T14:12:45;18.00;99.90
4518;DHT22;2271;49.464;11.070;2024-03-22T14:15:11;18.10;99.90
4518;DHT22;2271;49.464;11.070;2024-03-22T14:17:37;18.00;99.90
4518;DHT22;2271;49.464;11.070;2024-03-22T14:20:03;18.10;99.90
4518;DHT22;2271;49.464;11.070;2024-03-22T14:22:40;18.00;99.90
4518;DHT22;2271;49.464;11.070;2024-03-22T14:25:07;17.90;99.90
4518;DHT22;2271;49.464;11.070;2024-03-22T14:27:37;17.80;99.90
4518;DHT22;2271;49.464;11.070;2024-03-22T14:30:05;17.80;99.90
4518;DHT22;2271;49.464;11.070;2024-03-22T14:32:33;17.80;99.90
4518;DHT22;2271;49.464;11.070;2024-03-22T14:34:59;17.80;99.90
4518;DHT22;2271;49.464;11.070;2024-03-22T14:37:25;17.80;99.90
4518;DHT22;2271;49.464;11.070;2024-03-22T14:39:51;17.70;99.90
4518;DHT22;2271;49.464;11.070;2024-03-22T14:42:17;17.80;99.90
4518;DHT22;2271;49.464;11.070;2024-03-22T14:44:42;17.80;99.90
4518;DHT22;2271;49.464;11.070;2024-03-22T14:47:08;17.80;99.90
4518;DHT22;2271;49.464;11.070;2024-03-22T14:49:33;17.80;99.90
4518;DHT22;2271;49.464;11.070;2024-03-22T14:52:00;17.80;99.90
4518;DHT22;2271;49.464;11.070;2024-03-22T14:54:25;17.90;99.90
4518;DHT22;2271;49.464;11.070;2024-03-22T14:56:51;17.90;99.90
4518;DHT22;2271;49.464;11.070;2024-03-22T14:59:19;17.90;99.90
4518;DHT22;2271;49.464;11.070;2024-03-22T15:01:46;17.90;99.90
4518;DHT22;2271;49.464;11.070;2024-03-22T15:04:12;17.90;99.90
4518;DHT22;2271;49.464;11.070;2024-03-22T15:06:38;17.90;99.90
4518;DHT22;2271;49.464;11.070;2024-03-22T15:09:04;17.80;99.90
4518;DHT22;2271;49.464;11.070;2024-03-22T15:11:36;17.80;99.90
4518;DHT22;2271;49.464;11.070;2024-03-22T15:14:02;17.70;99.90
4518;DHT22;2271;49.464;11.070;2024-03-22T15:16:28;17.70;99.90
4518;DHT22;2271;49.464;11.070;2024-03-22T15:18:54;17.60;99.90
4518;DHT22;2271;49.464;11.070;2024-03-22T15:21:20;17.60;99.90
4518;DHT22;2271;49.464;11.070;2024-03-22T15:23:46;17.50;99.90
4518;DHT22;2271;49.464;11.070;2024-03-22T15:26:12;17.50;99.90
4518;DHT22;2271;49.464;11.070;2024-03-22T15:28:38;17.50;99.90
4518;DHT22;2271;49.464;11.070;2024-03-22T15:31:03;17.40;99.90
4518;DHT22;2271;49.464;11.070;2024-03-22T15:33:29;17.40;99.90
4518;DHT22;2271;49.464;11.070;2024-03-22T15:35:55;17.40;99.90
4518;DHT22;2271;49.464;11.070;2024-03-22T15:38:21;17.40;99.90
4518;DHT22;2271;49.464;11.070;2024-03-22T15:40:50;17.40;99.90
4518;DHT22;2271;49.464;11.070;2024-03-22T15:43:17;17.40;99.90
4518;DHT22;2271;49.464;11.070;2024-03-22T15:45:43;17.30;99.90